sensor_id;sensor_type;location;lat;lon;timestamp;noise_LAeq;noise_LA_min;noise_LA_max;noise_LA01;noise_LA95
59284;Laerm;45056;47.602;9.886;2024-02-21T00:01:55;42.52;34.69;57.11;;
59284;Laerm;45056;47.602;9.886;2024-02-21T00:04:23;39.15;35.36;42.47;;
59284;Laerm;45056;47.602;9.886;2024-02-21T00:06:51;40.21;36.91;43.19;;
59284;Laerm;45056;47.602;9.886;2024-02-21T00:09:19;39.76;35.94;42.65;;
59284;Laerm;45056;47.602;9.886;2024-02-21T00:11:47;38.91;35.36;42.53;;
59284;Laerm;45056;47.602;9.886;2024-02-21T00:14:15;40.04;35.36;44.72;;
59284;Laerm;45056;47.602;9.886;2024-02-21T00:16:45;40.02;34.69;56.53;;
59284;Laerm;45056;47.602;9.886;2024-02-21T00:19:12;38.76;34.69;49.50;;
59284;Laerm;45056;47.602;9.886;2024-02-21T00:21:41;38.50;34.31;41.06;;
59284;Laerm;45056;47.602;9.886;2024-02-21T00:24:09;39.24;34.69;45.11;;
59284;Laerm;45056;47.602;9.886;2024-02-21T00:26:37;41.96;34.69;55.09;;
59284;Laerm;45056;47.602;9.886;2024-02-21T00:29:05;38.68;34.69;41.22;;
59284;Laerm;45056;47.602;9.886;2024-02-21T00:31:33;40.69;35.04;55.60;;
59284;Laerm;45056;47.602;9.886;2024-02-21T00:34:02;40.41;36.20;43.19;;
59284;Laerm;45056;47.602;9.886;2024-02-21T00:36:30;39.53;35.04;42.53;;
59284;Laerm;45056;47.602;9.886;2024-02-21T00:38:58;38.83;35.36;41.33;;
59284;Laerm;45056;47.602;9.886;2024-02-21T00:41:26;38.63;34.69;41.06;;
59284;Laerm;45056;47.602;9.886;2024-02-21T00:43:55;38.90;35.04;42.16;;
59284;Laerm;45056;47.602;9.886;2024-02-21T00:46:23;41.44;34.69;56.91;;
59284;Laerm;45056;47.602;9.886;2024-02-21T00:48:51;38.93;35.04;41.53;;
59284;Laerm;45056;47.602;9.886;2024-02-21T00:51:20;38.71;35.04;44.27;;
59284;Laerm;45056;47.602;9.886;2024-02-21T00:53:48;38.76;35.04;42.98;;
59284;Laerm;45056;47.602;9.886;2024-02-21T00:56:17;38.95;34.69;43.24;;
59284;Laerm;45056;47.602;9.886;2024-02-21T00:58:44;38.65;35.04;43.14;;
59284;Laerm;45056;47.602;9.886;2024-02-21T01:01:13;43.84;35.04;57.89;;
59284;Laerm;45056;47.602;9.886;2024-02-21T01:03:48;39.87;35.36;42.47;;
59284;Laerm;45056;47.602;9.886;2024-02-21T01:06:16;40.42;36.45;44.62;;
59284;Laerm;45056;47.602;9.886;2024-02-21T01:08:46;38.65;35.04;42.35;;
59284;Laerm;45056;47.602;9.886;2024-02-21T01:11:14;39.64;32.93;49.43;;
59284;Laerm;45056;47.602;9.886;2024-02-21T01:13:42;39.82;35.04;43.72;;
59284;Laerm;45056;47.602;9.886;2024-02-21T01:16:10;40.04;35.36;55.48;;
59284;Laerm;45056;47.602;9.886;2024-02-21T01:18:38;38.75;34.69;41.38;;
59284;Laerm;45056;47.602;9.886;2024-02-21T01:21:07;38.49;34.31;41.75;;
59284;Laerm;45056;47.602;9.886;2024-02-21T01:23:38;38.30;33.44;40.89;;
59284;Laerm;45056;47.602;9.886;2024-02-21T01:26:08;39.12;34.69;43.09;;
59284;Laerm;45056;47.602;9.886;2024-02-21T01:28:40;38.91;35.04;42.29;;
59284;Laerm;45056;47.602;9.886;2024-02-21T01:31:08;42.00;34.69;55.22;;
59284;Laerm;45056;47.602;9.886;2024-02-21T01:33:37;40.17;36.56;43.19;;
59284;Laerm;45056;47.602;9.886;2024-02-21T01:36:06;41.95;35.36;54.71;;
59284;Laerm;45056;47.602;9.886;2024-02-21T01:38:35;38.85;35.01;43.14;;
59284;Laerm;45056;47.602;9.886;2024-02-21T01:41:03;40.93;33.44;55.37;;
59284;Laerm;45056;47.602;9.886;2024-02-21T01:43:32;39.64;33.44;43.63;;
59284;Laerm;45056;47.602;9.886;2024-02-21T01:46:00;41.12;35.36;56.94;;
59284;Laerm;45056;47.602;9.886;2024-02-21T01:48:30;39.08;35.36;42.09;;
59284;Laerm;45056;47.602;9.886;2024-02-21T01:50:58;38.84;35.01;41.96;;
59284;Laerm;45056;47.602;9.886;2024-02-21T01:53:32;40.00;34.69;51.86;;
59284;Laerm;45056;47.602;9.886;2024-02-21T01:56:02;39.06;34.31;43.39;;
59284;Laerm;45056;47.602;9.886;2024-02-21T01:58:37;39.39;35.04;44.07;;
59284;Laerm;45056;47.602;9.886;2024-02-21T02:01:07;45.02;35.04;56.53;;
59284;Laerm;45056;47.602;9.886;2024-02-21T02:03:35;40.12;36.20;42.59;;
59284;Laerm;45056;47.602;9.886;2024-02-21T02:06:05;42.51;35.36;60.67;;
59284;Laerm;45056;47.602;9.886;2024-02-21T02:08:34;38.45;33.90;41.14;;
59284;Laerm;45056;47.602;9.886;2024-02-21T02:11:02;41.16;35.36;53.93;;
59284;Laerm;45056;47.602;9.886;2024-02-21T02:13:30;39.85;34.31;48.88;;
59284;Laerm;45056;47.602;9.886;2024-02-21T02:16:00;41.81;35.36;58.33;;
59284;Laerm;45056;47.602;9.886;2024-02-21T02:18:28;38.77;34.69;43.24;;
59284;Laerm;45056;47.602;9.886;2024-02-21T02:20:55;38.95;34.31;41.61;;
59284;Laerm;45056;47.602;9.886;2024-02-21T02:23:26;39.23;34.31;44.69;;
59284;Laerm;45056;47.602;9.886;2024-02-21T02:25:55;38.97;34.69;43.29;;
59284;Laerm;45056;47.602;9.886;2024-02-21T02:28:23;38.76;35.04;41.53;;
59284;Laerm;45056;47.602;9.886;2024-02-21T02:30:51;40.30;35.04;54.23;;
59284;Laerm;45056;47.602;9.886;2024-02-21T02:33:19;40.74;35.04;44.51;;
59284;Laerm;45056;47.602;9.886;2024-02-21T02:35:47;40.05;35.94;42.36;;
59284;Laerm;45056;47.602;9.886;2024-02-21T02:38:15;39.20;35.36;42.65;;
59284;Laerm;45056;47.602;9.886;2024-02-21T02:40:45;39.03;34.69;43.51;;
59284;Laerm;45056;47.602;9.886;2024-02-21T02:43:13;39.08;34.31;42.47;;
59284;Laerm;45056;47.602;9.886;2024-02-21T02:45:41;44.62;35.04;57.95;;
59284;Laerm;45056;47.602;9.886;2024-02-21T02:48:09;48.76;37.52;64.29;;
59284;Laerm;45056;47.602;9.886;2024-02-21T02:50:37;40.91;35.94;52.67;;
59284;Laerm;45056;47.602;9.886;2024-02-21T02:53:05;39.40;35.04;42.22;;
59284;Laerm;45056;47.602;9.886;2024-02-21T02:55:33;39.05;35.36;42.22;;
59284;Laerm;45056;47.602;9.886;2024-02-21T02:58:03;38.64;35.04;41.14;;
59284;Laerm;45056;47.602;9.886;2024-02-21T03:00:31;44.48;35.36;56.74;;
59284;Laerm;45056;47.602;9.886;2024-02-21T03:03:03;40.22;35.66;42.71;;
59284;Laerm;45056;47.602;9.886;2024-02-21T03:05:31;43.20;35.04;58.00;;
59284;Laerm;45056;47.602;9.886;2024-02-21T03:07:59;41.21;35.04;54.10;;
59284;Laerm;45056;47.602;9.886;2024-02-21T03:10:27;38.76;34.31;42.16;;
59284;Laerm;45056;47.602;9.886;2024-02-21T03:12:55;39.28;35.36;44.35;;
59284;Laerm;45056;47.602;9.886;2024-02-21T03:15:25;41.77;35.04;55.11;;
59284;Laerm;45056;47.602;9.886;2024-02-21T03:17:53;39.04;34.69;42.93;;
59284;Laerm;45056;47.602;9.886;2024-02-21T03:20:21;39.27;36.20;43.68;;
59284;Laerm;45056;47.602;9.886;2024-02-21T03:22:49;41.89;36.45;52.24;;
59284;Laerm;45056;47.602;9.886;2024-02-21T03:25:16;42.27;36.45;59.66;;
59284;Laerm;45056;47.602;9.886;2024-02-21T03:27:46;40.68;35.36;50.64;;
59284;Laerm;45056;47.602;9.886;2024-02-21T03:30:14;40.86;34.69;55.62;;
59284;Laerm;45056;47.602;9.886;2024-02-21T03:32:44;45.88;35.04;61.64;;
59284;Laerm;45056;47.602;9.886;2024-02-21T03:35:12;42.12;36.69;50.72;;
59284;Laerm;45056;47.602;9.886;2024-02-21T03:37:40;39.04;34.69;42.71;;
59284;Laerm;45056;47.602;9.886;2024-02-21T03:40:10;39.53;34.31;44.01;;
59284;Laerm;45056;47.602;9.886;2024-02-21T03:42:38;43.76;35.94;59.83;;
59284;Laerm;45056;47.602;9.886;2024-02-21T03:45:08;44.11;35.66;59.23;;
59284;Laerm;45056;47.602;9.886;2024-02-21T03:47:36;44.77;36.20;59.85;;
59284;Laerm;45056;47.602;9.886;2024-02-21T03:50:07;43.35;37.12;55.99;;
59284;Laerm;45056;47.602;9.886;2024-02-21T03:52:35;46.70;38.05;61.00;;
59284;Laerm;45056;47.602;9.886;2024-02-21T03:55:04;41.15;36.91;45.39;;
59284;Laerm;45056;47.602;9.886;2024-02-21T03:57:34;43.65;36.20;57.69;;
59284;Laerm;45056;47.602;9.886;2024-02-21T04:00:03;45.23;37.88;57.12;;
59284;Laerm;45056;47.602;9.886;2024-02-21T04:02:32;45.49;36.91;57.19;;
59284;Laerm;45056;47.602;9.886;2024-02-21T04:05:00;44.30;35.94;57.14;;
59284;Laerm;45056;47.602;9.886;2024-02-21T04:07:29;45.16;37.88;55.06;;
59284;Laerm;45056;47.602;9.886;2024-02-21T04:09:57;44.50;37.52;55.34;;
59284;Laerm;45056;47.602;9.886;2024-02-21T04:12:25;43.50;36.91;51.30;;
59284;Laerm;45056;47.602;9.886;2024-02-21T04:14:53;48.82;38.37;62.64;;
59284;Laerm;45056;47.602;9.886;2024-02-21T04:17:21;47.00;37.32;62.31;;
59284;Laerm;45056;47.602;9.886;2024-02-21T04:19:50;41.09;36.45;47.61;;
59284;Laerm;45056;47.602;9.886;2024-02-21T04:22:18;46.03;38.37;58.15;;
59284;Laerm;45056;47.602;9.886;2024-02-21T04:24:47;44.52;37.70;57.56;;
59284;Laerm;45056;47.602;9.886;2024-02-21T04:27:15;44.21;37.32;57.70;;
59284;Laerm;45056;47.602;9.886;2024-02-21T04:29:43;42.90;36.20;54.09;;
59284;Laerm;45056;47.602;9.886;2024-02-21T04:32:11;43.73;38.05;55.68;;
59284;Laerm;45056;47.602;9.886;2024-02-21T04:34:41;46.87;39.70;61.87;;
59284;Laerm;45056;47.602;9.886;2024-02-21T04:37:09;44.26;39.21;56.25;;
59284;Laerm;45056;47.602;9.886;2024-02-21T04:39:37;48.21;40.13;59.37;;
59284;Laerm;45056;47.602;9.886;2024-02-21T04:42:06;45.47;39.70;54.37;;
59284;Laerm;45056;47.602;9.886;2024-02-21T04:44:34;45.99;39.70;59.51;;
59284;Laerm;45056;47.602;9.886;2024-02-21T04:47:02;49.03;39.92;66.06;;
59284;Laerm;45056;47.602;9.886;2024-02-21T04:49:30;47.09;40.13;59.61;;
59284;Laerm;45056;47.602;9.886;2024-02-21T04:51:59;52.91;39.21;66.67;;
59284;Laerm;45056;47.602;9.886;2024-02-21T04:54:27;46.22;40.43;57.99;;
59284;Laerm;45056;47.602;9.886;2024-02-21T04:56:54;47.47;40.13;57.31;;
59284;Laerm;45056;47.602;9.886;2024-02-21T04:59:24;52.44;39.92;72.14;;
59284;Laerm;45056;47.602;9.886;2024-02-21T05:01:52;47.21;38.37;59.05;;
59284;Laerm;45056;47.602;9.886;2024-02-21T05:04:20;56.41;38.95;68.83;;
59284;Laerm;45056;47.602;9.886;2024-02-21T05:06:48;47.79;38.37;64.46;;
59284;Laerm;45056;47.602;9.886;2024-02-21T05:09:16;47.03;37.88;62.90;;
59284;Laerm;45056;47.602;9.886;2024-02-21T05:11:45;45.72;38.05;57.33;;
59284;Laerm;45056;47.602;9.886;2024-02-21T05:14:13;45.21;39.08;58.88;;
59284;Laerm;45056;47.602;9.886;2024-02-21T05:16:42;46.63;38.05;58.25;;
59284;Laerm;45056;47.602;9.886;2024-02-21T05:19:10;46.81;39.46;59.86;;
59284;Laerm;45056;47.602;9.886;2024-02-21T05:21:38;48.12;39.70;68.66;;
59284;Laerm;45056;47.602;9.886;2024-02-21T05:24:06;48.08;38.52;61.14;;
59284;Laerm;45056;47.602;9.886;2024-02-21T05:26:34;47.25;38.95;61.08;;
59284;Laerm;45056;47.602;9.886;2024-02-21T05:29:02;44.15;37.12;56.23;;
59284;Laerm;45056;47.602;9.886;2024-02-21T05:32:00;49.20;40.27;63.93;;
59284;Laerm;45056;47.602;9.886;2024-02-21T05:34:29;48.58;40.71;63.90;;
59284;Laerm;45056;47.602;9.886;2024-02-21T05:36:57;47.12;39.92;59.16;;
59284;Laerm;45056;47.602;9.886;2024-02-21T05:39:26;49.54;38.95;65.22;;
59284;Laerm;45056;47.602;9.886;2024-02-21T05:41:56;47.93;40.43;58.91;;
59284;Laerm;45056;47.602;9.886;2024-02-21T05:44:24;46.01;39.46;57.19;;
59284;Laerm;45056;47.602;9.886;2024-02-21T05:46:53;49.37;40.71;61.58;;
59284;Laerm;45056;47.602;9.886;2024-02-21T05:49:23;48.39;39.34;63.01;;
59284;Laerm;45056;47.602;9.886;2024-02-21T05:51:51;46.43;40.13;56.01;;
59284;Laerm;45056;47.602;9.886;2024-02-21T05:54:19;48.37;41.22;60.98;;
59284;Laerm;45056;47.602;9.886;2024-02-21T05:56:47;48.64;40.43;58.76;;
59284;Laerm;45056;47.602;9.886;2024-02-21T05:59:15;49.46;40.13;62.85;;
59284;Laerm;45056;47.602;9.886;2024-02-21T06:01:43;48.42;41.75;58.54;;
59284;Laerm;45056;47.602;9.886;2024-02-21T06:04:11;47.90;40.98;58.57;;
59284;Laerm;45056;47.602;9.886;2024-02-21T06:06:40;48.15;41.38;57.73;;
59284;Laerm;45056;47.602;9.886;2024-02-21T06:09:08;46.65;41.22;56.09;;
59284;Laerm;45056;47.602;9.886;2024-02-21T06:11:36;46.82;40.62;68.71;;
59284;Laerm;45056;47.602;9.886;2024-02-21T06:14:04;46.39;39.92;57.06;;
59284;Laerm;45056;47.602;9.886;2024-02-21T06:16:32;48.21;40.03;68.24;;
59284;Laerm;45056;47.602;9.886;2024-02-21T06:19:00;48.61;40.33;64.25;;
59284;Laerm;45056;47.602;9.886;2024-02-21T06:21:30;50.09;41.38;58.30;;
59284;Laerm;45056;47.602;9.886;2024-02-21T06:23:59;48.50;41.68;60.57;;
59284;Laerm;45056;47.602;9.886;2024-02-21T06:26:27;48.79;41.46;57.84;;
59284;Laerm;45056;47.602;9.886;2024-02-21T06:28:55;51.37;40.98;63.50;;
59284;Laerm;45056;47.602;9.886;2024-02-21T06:31:23;48.60;42.29;58.14;;
59284;Laerm;45056;47.602;9.886;2024-02-21T06:33:51;50.15;42.76;63.22;;
59284;Laerm;45056;47.602;9.886;2024-02-21T06:36:19;47.82;41.89;55.61;;
59284;Laerm;45056;47.602;9.886;2024-02-21T06:38:47;52.05;42.98;68.16;;
59284;Laerm;45056;47.602;9.886;2024-02-21T06:41:18;50.03;42.76;62.63;;
59284;Laerm;45056;47.602;9.886;2024-02-21T06:43:47;50.02;43.14;58.91;;
59284;Laerm;45056;47.602;9.886;2024-02-21T06:46:24;48.78;40.71;62.66;;
59284;Laerm;45056;47.602;9.886;2024-02-21T06:48:53;50.08;43.39;62.01;;
59284;Laerm;45056;47.602;9.886;2024-02-21T06:51:23;49.08;42.22;57.03;;
59284;Laerm;45056;47.602;9.886;2024-02-21T06:53:51;51.91;44.51;69.46;;
59284;Laerm;45056;47.602;9.886;2024-02-21T06:56:23;47.95;42.16;57.52;;
59284;Laerm;45056;47.602;9.886;2024-02-21T06:58:53;48.04;41.89;57.24;;
59284;Laerm;45056;47.602;9.886;2024-02-21T07:01:21;51.94;42.35;64.26;;
59284;Laerm;45056;47.602;9.886;2024-02-21T07:03:49;48.21;40.62;58.60;;
59284;Laerm;45056;47.602;9.886;2024-02-21T07:06:17;47.65;42.16;56.94;;
59284;Laerm;45056;47.602;9.886;2024-02-21T07:08:45;47.45;41.46;57.54;;
59284;Laerm;45056;47.602;9.886;2024-02-21T07:11:14;47.61;41.38;56.51;;
59284;Laerm;45056;47.602;9.886;2024-02-21T07:13:43;49.64;42.47;61.57;;
59284;Laerm;45056;47.602;9.886;2024-02-21T07:16:11;48.77;41.38;59.92;;
59284;Laerm;45056;47.602;9.886;2024-02-21T07:18:39;49.02;40.71;60.80;;
59284;Laerm;45056;47.602;9.886;2024-02-21T07:21:07;48.42;40.80;63.63;;
59284;Laerm;45056;47.602;9.886;2024-02-21T07:23:35;48.18;41.38;57.49;;
59284;Laerm;45056;47.602;9.886;2024-02-21T07:26:04;48.29;41.82;60.02;;
59284;Laerm;45056;47.602;9.886;2024-02-21T07:28:32;52.95;41.82;63.98;;
59284;Laerm;45056;47.602;9.886;2024-02-21T07:31:01;49.98;41.96;61.41;;
59284;Laerm;45056;47.602;9.886;2024-02-21T07:33:29;49.65;41.68;61.27;;
59284;Laerm;45056;47.602;9.886;2024-02-21T07:35:59;48.93;41.06;65.07;;
59284;Laerm;45056;47.602;9.886;2024-02-21T07:38:27;49.31;41.06;64.22;;
59284;Laerm;45056;47.602;9.886;2024-02-21T07:40:55;49.70;41.38;60.73;;
59284;Laerm;45056;47.602;9.886;2024-02-21T07:43:23;49.59;40.89;61.95;;
59284;Laerm;45056;47.602;9.886;2024-02-21T07:45:53;48.11;41.96;62.73;;
59284;Laerm;45056;47.602;9.886;2024-02-21T07:48:22;48.76;41.06;58.89;;
59284;Laerm;45056;47.602;9.886;2024-02-21T07:50:53;48.24;41.38;61.73;;
59284;Laerm;45056;47.602;9.886;2024-02-21T07:53:21;48.42;40.71;58.09;;
59284;Laerm;45056;47.602;9.886;2024-02-21T07:55:49;49.26;39.58;62.15;;
59284;Laerm;45056;47.602;9.886;2024-02-21T07:58:17;49.07;41.61;62.17;;
59284;Laerm;45056;47.602;9.886;2024-02-21T08:00:45;51.61;41.14;60.85;;
59284;Laerm;45056;47.602;9.886;2024-02-21T08:03:13;51.12;41.61;60.98;;
59284;Laerm;45056;47.602;9.886;2024-02-21T08:05:43;46.88;39.21;57.81;;
59284;Laerm;45056;47.602;9.886;2024-02-21T08:08:12;51.36;40.43;63.41;;
59284;Laerm;45056;47.602;9.886;2024-02-21T08:10:44;49.68;39.08;64.22;;
59284;Laerm;45056;47.602;9.886;2024-02-21T08:13:13;49.17;40.23;61.47;;
59284;Laerm;45056;47.602;9.886;2024-02-21T08:15:41;47.59;40.89;59.87;;
59284;Laerm;45056;47.602;9.886;2024-02-21T08:18:09;48.57;41.61;59.97;;
59284;Laerm;45056;47.602;9.886;2024-02-21T08:20:37;48.34;41.14;58.86;;
59284;Laerm;45056;47.602;9.886;2024-02-21T08:23:07;50.03;40.98;65.02;;
59284;Laerm;45056;47.602;9.886;2024-02-21T08:25:35;47.15;40.98;56.24;;
59284;Laerm;45056;47.602;9.886;2024-02-21T08:28:05;48.27;41.14;56.58;;
59284;Laerm;45056;47.602;9.886;2024-02-21T08:30:33;46.32;40.89;55.69;;
59284;Laerm;45056;47.602;9.886;2024-02-21T08:33:01;51.25;41.68;66.39;;
59284;Laerm;45056;47.602;9.886;2024-02-21T08:35:30;47.92;41.53;60.38;;
59284;Laerm;45056;47.602;9.886;2024-02-21T08:37:59;47.19;40.89;56.15;;
59284;Laerm;45056;47.602;9.886;2024-02-21T08:40:28;47.36;41.06;58.19;;
59284;Laerm;45056;47.602;9.886;2024-02-21T08:42:56;50.31;41.06;65.69;;
59284;Laerm;45056;47.602;9.886;2024-02-21T08:45:24;49.56;41.38;60.84;;
59284;Laerm;45056;47.602;9.886;2024-02-21T08:47:52;50.88;40.80;61.15;;
59284;Laerm;45056;47.602;9.886;2024-02-21T08:50:20;48.26;42.41;60.21;;
59284;Laerm;45056;47.602;9.886;2024-02-21T08:52:48;48.14;41.53;59.36;;
59284;Laerm;45056;47.602;9.886;2024-02-21T08:55:16;47.20;40.43;63.93;;
59284;Laerm;45056;47.602;9.886;2024-02-21T08:57:45;48.29;40.23;55.31;;
59284;Laerm;45056;47.602;9.886;2024-02-21T09:00:16;48.23;39.58;57.65;;
59284;Laerm;45056;47.602;9.886;2024-02-21T09:02:44;52.12;41.30;72.11;;
59284;Laerm;45056;47.602;9.886;2024-02-21T09:05:12;47.01;39.92;56.81;;
59284;Laerm;45056;47.602;9.886;2024-02-21T09:07:40;48.69;40.89;59.94;;
59284;Laerm;45056;47.602;9.886;2024-02-21T09:10:09;47.00;41.14;58.10;;
59284;Laerm;45056;47.602;9.886;2024-02-21T09:12:37;47.18;39.92;57.89;;
59284;Laerm;45056;47.602;9.886;2024-02-21T09:15:08;48.25;41.06;57.37;;
59284;Laerm;45056;47.602;9.886;2024-02-21T09:17:36;48.29;40.23;60.31;;
59284;Laerm;45056;47.602;9.886;2024-02-21T09:20:05;46.98;40.13;56.84;;
59284;Laerm;45056;47.602;9.886;2024-02-21T09:22:34;47.30;40.53;59.23;;
59284;Laerm;45056;47.602;9.886;2024-02-21T09:25:02;49.23;42.53;58.11;;
59284;Laerm;45056;47.602;9.886;2024-02-21T09:27:31;46.85;41.06;55.46;;
59284;Laerm;45056;47.602;9.886;2024-02-21T09:29:59;47.66;41.53;55.58;;
59284;Laerm;45056;47.602;9.886;2024-02-21T09:32:28;49.15;41.22;59.75;;
59284;Laerm;45056;47.602;9.886;2024-02-21T09:34:56;47.64;41.53;56.24;;
59284;Laerm;45056;47.602;9.886;2024-02-21T09:37:25;47.25;40.13;55.84;;
59284;Laerm;45056;47.602;9.886;2024-02-21T09:39:53;51.76;40.62;59.56;;
59284;Laerm;45056;47.602;9.886;2024-02-21T09:42:21;50.54;42.09;68.52;;
59284;Laerm;45056;47.602;9.886;2024-02-21T09:44:53;47.12;40.33;57.54;;
59284;Laerm;45056;47.602;9.886;2024-02-21T09:47:40;50.71;40.23;64.66;;
59284;Laerm;45056;47.602;9.886;2024-02-21T09:50:14;47.32;39.78;60.10;;
59284;Laerm;45056;47.602;9.886;2024-02-21T09:52:44;47.31;38.81;59.05;;
59284;Laerm;45056;47.602;9.886;2024-02-21T09:55:16;47.38;40.43;55.38;;
59284;Laerm;45056;47.602;9.886;2024-02-21T09:57:45;48.02;41.38;57.41;;
59284;Laerm;45056;47.602;9.886;2024-02-21T10:00:15;49.29;41.82;58.07;;
59284;Laerm;45056;47.602;9.886;2024-02-21T10:02:49;49.39;40.71;63.94;;
59284;Laerm;45056;47.602;9.886;2024-02-21T10:05:18;48.23;41.22;63.17;;
59284;Laerm;45056;47.602;9.886;2024-02-21T10:07:48;47.39;41.46;55.57;;
59284;Laerm;45056;47.602;9.886;2024-02-21T10:10:16;46.87;40.23;54.81;;
59284;Laerm;45056;47.602;9.886;2024-02-21T10:12:49;48.28;41.53;58.58;;
59284;Laerm;45056;47.602;9.886;2024-02-21T10:15:21;51.71;41.46;62.36;;
59284;Laerm;45056;47.602;9.886;2024-02-21T10:17:59;46.32;40.71;55.02;;
59284;Laerm;45056;47.602;9.886;2024-02-21T10:20:27;46.84;40.03;56.00;;
59284;Laerm;45056;47.602;9.886;2024-02-21T10:23:03;48.91;42.35;57.77;;
59284;Laerm;45056;47.602;9.886;2024-02-21T10:25:35;47.81;40.98;60.76;;
59284;Laerm;45056;47.602;9.886;2024-02-21T10:28:05;49.41;42.53;59.24;;
59284;Laerm;45056;47.602;9.886;2024-02-21T10:30:33;47.93;41.38;56.88;;
59284;Laerm;45056;47.602;9.886;2024-02-21T10:33:03;50.15;40.36;61.22;;
59284;Laerm;45056;47.602;9.886;2024-02-21T10:35:33;56.16;42.30;62.71;;
59284;Laerm;45056;47.602;9.886;2024-02-21T10:38:02;56.07;41.89;67.01;;
59284;Laerm;45056;47.602;9.886;2024-02-21T10:40:30;56.32;41.75;63.26;;
59284;Laerm;45056;47.602;9.886;2024-02-21T10:43:00;51.04;42.22;60.82;;
59284;Laerm;45056;47.602;9.886;2024-02-21T10:45:31;49.56;40.98;60.59;;
59284;Laerm;45056;47.602;9.886;2024-02-21T10:48:11;51.07;39.92;64.00;;
59284;Laerm;45056;47.602;9.886;2024-02-21T10:50:56;47.83;40.53;59.78;;
59284;Laerm;45056;47.602;9.886;2024-02-21T10:53:39;48.23;41.53;58.38;;
59284;Laerm;45056;47.602;9.886;2024-02-21T10:56:22;49.07;41.61;62.68;;
59284;Laerm;45056;47.602;9.886;2024-02-21T10:58:52;46.37;40.98;54.77;;
59284;Laerm;45056;47.602;9.886;2024-02-21T11:01:21;51.28;41.30;60.57;;
59284;Laerm;45056;47.602;9.886;2024-02-21T11:03:54;59.91;42.82;70.89;;
59284;Laerm;45056;47.602;9.886;2024-02-21T11:06:24;59.67;42.95;70.32;;
59284;Laerm;45056;47.602;9.886;2024-02-21T11:09:06;48.33;41.38;63.57;;
59284;Laerm;45056;47.602;9.886;2024-02-21T11:11:37;45.98;41.46;54.05;;
59284;Laerm;45056;47.602;9.886;2024-02-21T11:14:07;50.13;41.38;67.59;;
59284;Laerm;45056;47.602;9.886;2024-02-21T11:16:37;48.89;41.14;60.71;;
59284;Laerm;45056;47.602;9.886;2024-02-21T11:19:09;48.88;42.35;56.12;;
59284;Laerm;45056;47.602;9.886;2024-02-21T11:21:38;49.16;42.64;64.72;;
59284;Laerm;45056;47.602;9.886;2024-02-21T11:24:08;49.15;41.22;60.30;;
59284;Laerm;45056;47.602;9.886;2024-02-21T11:26:38;49.09;41.68;60.88;;
59284;Laerm;45056;47.602;9.886;2024-02-21T11:29:06;48.71;42.65;59.86;;
59284;Laerm;45056;47.602;9.886;2024-02-21T11:31:40;50.96;40.71;62.81;;
59284;Laerm;45056;47.602;9.886;2024-02-21T11:34:11;47.98;41.89;60.31;;
59284;Laerm;45056;47.602;9.886;2024-02-21T11:36:51;46.75;41.30;57.54;;
59284;Laerm;45056;47.602;9.886;2024-02-21T11:39:21;49.24;41.75;61.55;;
59284;Laerm;45056;47.602;9.886;2024-02-21T11:42:06;50.49;41.38;66.61;;
59284;Laerm;45056;47.602;9.886;2024-02-21T11:44:37;47.16;39.92;55.23;;
59284;Laerm;45056;47.602;9.886;2024-02-21T11:47:06;48.37;40.18;60.12;;
59284;Laerm;45056;47.602;9.886;2024-02-21T11:49:44;50.34;41.48;64.04;;
59284;Laerm;45056;47.602;9.886;2024-02-21T11:52:12;49.86;41.46;65.92;;
59284;Laerm;45056;47.602;9.886;2024-02-21T11:54:42;47.53;41.06;57.08;;
59284;Laerm;45056;47.602;9.886;2024-02-21T11:57:10;49.46;42.71;65.23;;
59284;Laerm;45056;47.602;9.886;2024-02-21T11:59:40;50.03;41.75;62.95;;
59284;Laerm;45056;47.602;9.886;2024-02-21T12:02:09;50.85;42.88;62.50;;
59284;Laerm;45056;47.602;9.886;2024-02-21T12:04:39;47.80;41.14;56.31;;
59284;Laerm;45056;47.602;9.886;2024-02-21T12:07:07;48.49;41.38;59.23;;
59284;Laerm;45056;47.602;9.886;2024-02-21T12:09:35;47.14;41.06;58.89;;
59284;Laerm;45056;47.602;9.886;2024-02-21T12:12:05;48.48;41.75;61.53;;
59284;Laerm;45056;47.602;9.886;2024-02-21T12:14:35;51.38;39.21;67.89;;
59284;Laerm;45056;47.602;9.886;2024-02-21T12:17:05;49.34;40.80;63.70;;
59284;Laerm;45056;47.602;9.886;2024-02-21T12:19:33;47.90;41.68;62.04;;
59284;Laerm;45056;47.602;9.886;2024-02-21T12:22:03;47.80;40.43;60.80;;
59284;Laerm;45056;47.602;9.886;2024-02-21T12:24:32;48.69;41.53;63.34;;
59284;Laerm;45056;47.602;9.886;2024-02-21T12:27:00;47.81;40.23;62.85;;
59284;Laerm;45056;47.602;9.886;2024-02-21T12:29:30;48.00;39.81;63.33;;
59284;Laerm;45056;47.602;9.886;2024-02-21T12:31:59;47.07;40.98;56.81;;
59284;Laerm;45056;47.602;9.886;2024-02-21T12:34:27;49.11;40.33;61.36;;
59284;Laerm;45056;47.602;9.886;2024-02-21T12:36:59;49.28;40.53;64.67;;
59284;Laerm;45056;47.602;9.886;2024-02-21T12:39:28;46.50;40.62;54.95;;
59284;Laerm;45056;47.602;9.886;2024-02-21T12:41:56;48.83;41.68;60.57;;
59284;Laerm;45056;47.602;9.886;2024-02-21T12:44:24;47.54;41.22;56.48;;
59284;Laerm;45056;47.602;9.886;2024-02-21T12:46:52;49.79;41.06;62.47;;
59284;Laerm;45056;47.602;9.886;2024-02-21T12:49:20;48.94;41.61;59.21;;
59284;Laerm;45056;47.602;9.886;2024-02-21T12:51:49;47.47;41.22;57.80;;
59284;Laerm;45056;47.602;9.886;2024-02-21T12:54:17;47.50;41.38;58.36;;
59284;Laerm;45056;47.602;9.886;2024-02-21T12:56:46;51.06;42.71;66.48;;
59284;Laerm;45056;47.602;9.886;2024-02-21T12:59:14;48.22;42.16;58.59;;
59284;Laerm;45056;47.602;9.886;2024-02-21T13:01:42;48.13;40.98;60.14;;
59284;Laerm;45056;47.602;9.886;2024-02-21T13:04:10;47.38;42.76;55.37;;
59284;Laerm;45056;47.602;9.886;2024-02-21T13:06:38;48.60;41.30;57.21;;
59284;Laerm;45056;47.602;9.886;2024-02-21T13:09:06;47.51;41.22;55.69;;
59284;Laerm;45056;47.602;9.886;2024-02-21T13:11:39;48.69;41.46;56.95;;
59284;Laerm;45056;47.602;9.886;2024-02-21T13:14:09;48.73;42.16;59.74;;
59284;Laerm;45056;47.602;9.886;2024-02-21T13:16:37;49.19;41.96;58.20;;
59284;Laerm;45056;47.602;9.886;2024-02-21T13:19:07;49.30;41.82;60.72;;
59284;Laerm;45056;47.602;9.886;2024-02-21T13:21:35;48.65;41.68;63.04;;
59284;Laerm;45056;47.602;9.886;2024-02-21T13:24:04;47.00;39.46;55.77;;
59284;Laerm;45056;47.602;9.886;2024-02-21T13:26:32;49.35;42.09;63.53;;
59284;Laerm;45056;47.602;9.886;2024-02-21T13:29:00;49.54;39.81;60.85;;
59284;Laerm;45056;47.602;9.886;2024-02-21T13:31:30;49.95;40.62;62.09;;
59284;Laerm;45056;47.602;9.886;2024-02-21T13:33:58;48.74;41.14;56.99;;
59284;Laerm;45056;47.602;9.886;2024-02-21T13:36:26;49.18;41.82;59.77;;
59284;Laerm;45056;47.602;9.886;2024-02-21T13:38:54;48.31;41.82;59.77;;
59284;Laerm;45056;47.602;9.886;2024-02-21T13:41:22;47.84;41.61;58.40;;
59284;Laerm;45056;47.602;9.886;2024-02-21T13:43:50;48.70;42.93;61.45;;
59284;Laerm;45056;47.602;9.886;2024-02-21T13:46:18;48.07;40.80;60.39;;
59284;Laerm;45056;47.602;9.886;2024-02-21T13:48:47;47.61;39.34;64.39;;
59284;Laerm;45056;47.602;9.886;2024-02-21T13:51:16;48.29;41.14;62.24;;
59284;Laerm;45056;47.602;9.886;2024-02-21T13:53:46;46.76;41.61;57.43;;
59284;Laerm;45056;47.602;9.886;2024-02-21T13:56:14;48.35;41.26;63.09;;